Flight Track Log - Related Links

Times and Time Zones

All times are in EDT time to prevent confusion due to time zone crossing. See the ASQ5964 flight status page for this flight to view local times or setup timezone preferences in your user account.

Time Position Orientation Groundspeed Altitude Reporting Facility
EDT Latitude Longitude Course Direction KTS MPH feet Rate Location/Type
Sat 08:28:29 PM 39.8833 -104.6000 102° East 182 209 6,300  Level Denver TRACON
Sat 08:29:35 PM 39.8667 -104.5000 102° East 239 275 7,500 1,080 Climbing Denver TRACON
Sat 08:30:09 PM 39.8522 -104.4592 115° Southeast 253 291 8,100 1,750 Climbing Denver Center
Sat 08:31:11 PM 39.8353 -104.3489 101° East 286 329 10,300 1,403 Climbing Denver Center
Sat 08:32:13 PM 39.8181 -104.2375 101° East 314 361 11,000 823 Climbing Denver Center
Sat 08:33:15 PM 39.7994 -104.1111 101° East 353 406 12,000 1,171 Climbing Denver Center
Sat 08:34:16 PM 39.7767 -103.9694 102° East 372 428 13,400 1,317 Climbing Denver Center
Sat 08:35:18 PM 39.7558 -103.8364 101° East 376 433 14,700 1,306 Climbing Denver Center
Sat 08:36:20 PM 39.7394 -103.7031 99° East 366 421 16,100 1,355 Climbing Denver Center
Sat 08:37:22 PM 39.7275 -103.5675 96° East 369 425 17,500 1,210 Climbing Denver Center
Sat 08:38:24 PM 39.7169 -103.4283 96° East 385 443 18,600 1,355 Climbing Denver Center
Sat 08:39:26 PM 39.7036 -103.2644 96° East 384 442 20,300 1,452 Climbing Denver Center
Sat 08:40:28 PM 39.6917 -103.1278 96° East 383 441 21,600 1,161 Climbing Denver Center
Sat 08:41:30 PM 39.6811 -102.9889 96° East 385 443 22,700 1,122 Climbing Denver Center
Sat 08:42:31 PM 39.6639 -102.8481 99° East 389 448 23,900 1,122 Climbing Denver Center
Sat 08:43:33 PM 39.6467 -102.7006 99° East 398 458 25,000 1,113 Climbing Denver Center
Sat 08:44:35 PM 39.6281 -102.5419 99° East 398 458 26,200 968 Climbing Denver Center
Sat 08:45:37 PM 39.6122 -102.4092 99° East 393 452 27,000 677 Climbing Denver Center
Sat 08:46:39 PM 39.5964 -102.2722 98° East 398 458 27,600 634 Climbing Denver Center
Sat 08:47:40 PM 39.5750 -102.1036 99° East 422 486 28,300 634 Climbing Denver Center
Sat 08:48:42 PM 39.5564 -101.9539 99° East 432 497 28,900 629 Climbing Denver Center
Sat 08:49:44 PM 39.5342 -101.7767 99° East 444 511 29,600 677 Climbing Denver Center
Sat 08:50:46 PM 39.5139 -101.6228 100° East 449 517 30,300 780 Climbing Denver Center
Sat 08:51:47 PM 39.4914 -101.4439 99° East 449 517 31,200 927 Climbing Denver Center
Sat 08:52:49 PM 39.4722 -101.2906 99° East 449 517 32,200 1,210 Climbing Denver Center
Sat 08:53:51 PM 39.4494 -101.1175 100° East 443 510 33,700 1,306 Climbing Denver Center
Sat 08:54:53 PM 39.4311 -100.9742 99° East 429 494 34,900 634 Climbing Denver Center
Sat 08:55:54 PM 39.4117 -100.8317 100° East 425 489 35,000 49 Climbing Denver Center
Sat 08:56:56 PM 39.3875 -100.6547 100° East 444 511 35,000  Level Denver Center
Sat 08:57:58 PM 39.3653 -100.4950 100° East 465 535 35,000  Level Denver Center
Sat 08:59:02 PM 39.3392 -100.3019 100° East 485 558 35,000  Level Denver Center
Sat 09:00:03 PM 39.3156 -100.1333 100° East 494 568 35,000  Level Denver Center
Sat 09:01:05 PM 39.2878 -99.9342 100° East 502 578 35,000  Level Denver Center
Sat 09:02:07 PM 39.2628 -99.7606 100° East 511 588 35,000  Level Denver Center
Sat 09:03:08 PM 39.2342 -99.5586 100° East 512 589 35,000  Level Denver Center
Sat 09:04:10 PM 39.2083 -99.3853 101° East 513 590 35,000  Level Denver Center
Sat 09:05:12 PM 39.1811 -99.2047 101° East 513 590 35,000  Level Denver Center
Sat 09:05:48 PM 39.1697 -99.1181 100° East 513 590 35,000  Level Kansas City Center
Sat 09:06:49 PM 39.1372 -98.9008 101° East 513 590 35,000  Level Kansas City Center
Sat 09:07:49 PM 39.1103 -98.7197 101° East 514 592 35,000  Level Kansas City Center
Sat 09:08:51 PM 39.0822 -98.5400 101° East 514 592 35,000  Level Kansas City Center
Sat 09:09:52 PM 39.0536 -98.3592 101° East 514 592 35,000  Level Kansas City Center
Sat 09:10:52 PM 39.0250 -98.1792 102° East 514 592 35,000  Level Kansas City Center
Sat 09:11:56 PM 38.9969 -97.9978 101° East 514 592 35,000  Level Kansas City Center
Sat 09:12:57 PM 38.9686 -97.8256 102° East 514 592 35,000  Level Kansas City Center
Sat 09:13:58 PM 38.9397 -97.6483 102° East 513 590 35,000  Level Kansas City Center
Sat 09:14:58 PM 38.9083 -97.4581 102° East 516 594 35,000  Level Kansas City Center
Sat 09:15:59 PM 38.8789 -97.2775 102° East 517 595 35,000  Level Kansas City Center
Sat 09:17:02 PM 38.8481 -97.0975 102° East 517 595 35,000  Level Kansas City Center
Sat 09:18:04 PM 38.8122 -96.8822 102° East 517 595 35,000  Level Kansas City Center
Sat 09:19:02 PM 38.7831 -96.7042 102° East 515 593 35,000  Level Kansas City Center
Sat 09:20:06 PM 38.7519 -96.5256 103° East 513 590 35,000  Level Kansas City Center
Sat 09:21:08 PM 38.7206 -96.3608 104° East 513 590 35,000  Level Kansas City Center
Sat 09:22:09 PM 38.6892 -96.1833 103° East 514 592 35,000  Level Kansas City Center
Sat 09:23:11 PM 38.6514 -95.9697 103° East 516 594 35,000  Level Kansas City Center
Sat 09:24:11 PM 38.6200 -95.7939 103° East 515 593 35,000  Level Kansas City Center
Sat 09:25:11 PM 38.5875 -95.6167 103° East 515 593 35,000  Level Kansas City Center
Sat 09:26:14 PM 38.5547 -95.4394 103° East 515 593 35,000  Level Kansas City Center
Sat 09:27:16 PM 38.5233 -95.2636 103° East 515 593 35,000  Level Kansas City Center
Sat 09:28:15 PM 38.4894 -95.0856 104° East 515 593 35,000  Level Kansas City Center
Sat 09:29:16 PM 38.4567 -94.9111 103° East 515 593 35,000  Level Kansas City Center
Sat 09:30:17 PM 38.4172 -94.7000 103° East 515 593 35,000  Level Kansas City Center
Sat 09:31:21 PM 38.3831 -94.5242 104° East 514 592 35,000  Level Kansas City Center
Sat 09:32:22 PM 38.3489 -94.3492 104° East 514 592 35,000  Level Kansas City Center
Sat 09:33:23 PM 38.3153 -94.1747 104° East 512 589 35,000  Level Kansas City Center
Sat 09:34:24 PM 38.2781 -93.9878 104° East 512 589 35,000  Level Kansas City Center
Sat 09:35:25 PM 38.2417 -93.8125 105° East 512 589 35,000  Level Kansas City Center
Sat 09:36:25 PM 38.2067 -93.6358 104° East 512 589 35,000  Level Kansas City Center
Sat 09:37:26 PM 38.1717 -93.4606 104° East 512 589 35,000  Level Kansas City Center
Sat 09:38:28 PM 38.1369 -93.2853 104° East 512 589 35,000  Level Kansas City Center
Sat 09:39:30 PM 38.1011 -93.1100 105° East 512 589 35,000  Level Kansas City Center
Sat 09:40:30 PM 38.0664 -92.9339 104° East 513 590 35,000  Level Kansas City Center
Sat 09:41:33 PM 38.0292 -92.7608 105° East 513 590 35,000  Level Kansas City Center
Sat 09:42:34 PM 37.9869 -92.5589 105° East 513 590 35,000  Level Kansas City Center
Sat 09:43:36 PM 37.9500 -92.3853 105° East 513 590 35,000  Level Kansas City Center
Sat 09:44:37 PM 37.9111 -92.2103 106° East 513 590 35,000  Level Kansas City Center
Sat 09:45:38 PM 37.8758 -92.0447 105° East 513 590 35,000  Level Kansas City Center
Sat 09:46:38 PM 37.8397 -91.8731 105° East 507 583 35,000  Level Kansas City Center
Sat 09:47:39 PM 37.8019 -91.7014 106° East 507 583 35,000  Level Kansas City Center
Sat 09:48:41 PM 37.7567 -91.4944 105° East 507 583 35,000  Level Kansas City Center
Sat 09:49:41 PM 37.7175 -91.3217 106° East 508 585 35,000  Level Kansas City Center
Sat 09:50:44 PM 37.6786 -91.1503 106° East 508 585 35,000  Level Kansas City Center
Sat 09:51:44 PM 37.6397 -90.9792 106° East 508 585 35,000  Level Kansas City Center
Sat 09:52:45 PM 37.6000 -90.8092 106° East 508 585 35,000  Level Kansas City Center
Sat 09:53:47 PM 37.5628 -90.6403 105° East 508 585 35,000  Level Kansas City Center
Sat 09:54:47 PM 37.5233 -90.4736 107° East 507 583 35,000  Level Kansas City Center
Sat 09:55:48 PM 37.4853 -90.3072 106° East 504 580 35,000  Level Kansas City Center
Sat 09:56:51 PM 37.4453 -90.1422 107° East 501 577 35,000  Level Kansas City Center
Sat 09:57:49 PM 37.4039 -89.9656 106° East 500 575 35,000  Level Kansas City Center
Sat 09:58:53 PM 37.3647 -89.7947 106° East 502 578 35,000  Level Kansas City Center
Sat 09:59:54 PM 37.3247 -89.6281 107° East 502 578 35,000  Level Kansas City Center
Sat 10:00:54 PM 37.2850 -89.4611 107° East 501 577 35,000  Level Kansas City Center
Sat 10:01:56 PM 37.2439 -89.2953 107° East 500 575 35,000  Level Kansas City Center
Sat 10:02:57 PM 37.2042 -89.1292 107° East 499 574 35,000  Level Kansas City Center
Sat 10:03:58 PM 37.1631 -88.9636 107° East 498 573 35,000  Level Kansas City Center
Sat 10:05:15 PM 37.1097 -88.7275 106° East 500 575 35,000  Level Memphis Center
Sat 10:06:16 PM 37.0933 -88.5556 97° East 499 574 35,000  Level Memphis Center
Sat 10:07:17 PM 37.0722 -88.3819 99° East 500 575 35,000  Level Memphis Center
Sat 10:08:18 PM 37.0286 -88.2142 108° East 502 578 35,000  Level Memphis Center
Sat 10:09:19 PM 36.9828 -88.0419 108° East 506 582 35,000  Level Memphis Center
Sat 10:10:19 PM 36.9375 -87.8744 109° East 505 581 35,000  Level Memphis Center
Sat 10:11:20 PM 36.8925 -87.7075 109° East 504 580 35,000  Level Memphis Center
Sat 10:12:21 PM 36.8478 -87.5417 109° East 503 579 35,000  Level Memphis Center
Sat 10:13:22 PM 36.8019 -87.3769 109° East 500 575 35,000 -197 Level Memphis Center
Sat 10:14:23 PM 36.7564 -87.2117 109° East 500 575 34,600 -639 Descending Memphis Center
Sat 10:15:24 PM 36.7111 -87.0469 109° East 499 574 33,700 -885 Descending Memphis Center
Sat 10:16:25 PM 36.6658 -86.8833 109° East 495 570 32,800 -843 Descending Memphis Center
Sat 10:17:25 PM 36.6200 -86.7183 109° East 495 570 32,000 -397 Descending Memphis Center
Sat 10:18:26 PM 36.5733 -86.5558 110° East 494 568 32,000  Level Memphis Center
Sat 10:19:27 PM 36.5267 -86.3933 110° East 492 566 32,000 -738 Level Memphis Center
Sat 10:20:28 PM 36.4789 -86.2267 110° East 499 574 30,500 -1,820 Descending Memphis Center
Sat 10:21:29 PM 36.4314 -86.0608 110° East 505 581 28,300 -2,182 Descending Memphis Center
Sat 10:22:29 PM 36.3839 -85.8997 110° East 496 571 26,100 -2,281 Descending Memphis Center
Sat 10:23:30 PM 36.3333 -85.7289 110° East 482 555 23,700 -2,262 Descending Memphis Center
Sat 10:24:31 PM 36.2894 -85.5772 110° East 473 544 21,500 -1,328 Descending Memphis Center
Sat 10:25:32 PM 36.2464 -85.4308 110° East 457 526 21,000 -246 Descending Memphis Center
Sat 10:26:33 PM 36.2033 -85.2875 110° East 447 514 21,000  Level Memphis Center
Sat 10:27:24 PM 36.1658 -85.1653 111° Southeast 448 516 21,000 -216 Level Atlanta Center
Sat 10:28:24 PM 36.1233 -85.0206 110° East 448 516 20,600 -1,350 Descending Atlanta Center
Sat 10:29:24 PM 36.0806 -84.8789 110° East 448 516 18,300 -2,650 Descending Atlanta Center
Sat 10:30:24 PM 36.0397 -84.7422 110° East 436 502 15,300 -3,000 Descending Atlanta Center
Sat 10:31:24 PM 35.9986 -84.6136 112° Southeast 413 475 12,300 -2,150 Descending Atlanta Center
Sat 10:32:24 PM 35.9636 -84.4903 109° East 398 458 11,000 -1,000 Descending Atlanta Center
Sat 10:33:24 PM 35.9431 -84.3875 104° East 353 406 10,300 -1,250 Descending Atlanta Center
Sat 10:34:24 PM 35.9392 -84.2825 93° East 316 364 8,500 -1,500 Descending Atlanta Center
Sat 10:35:24 PM 35.9436 -84.1822 87° East 298 343 7,300 -1,050 Descending Atlanta Center
Sat 10:36:24 PM 35.9436 -84.0953 90° East 278 320 6,400 -1,200 Descending Atlanta Center
Sat 10:37:24 PM 35.9436 -84.0131 90° East 256 295 4,900 -1,350 Descending Atlanta Center
Sat 10:38:24 PM 35.9186 -83.9414 113° Southeast 235 270 3,700 -1,000 Descending Atlanta Center
Sat 10:39:24 PM 35.8850 -83.9081 141° Southeast 166 191 2,900 -700 Descending Atlanta Center
Sat 10:40:24 PM 35.8664 -83.9286 222° Southwest 109 125 2,300 -600 Descending Atlanta Center

Login

Don't have an account? Register now (free) for customized features, flight alerts, and more!